Time;durP1;ratioP1;P1;durP2;ratioP2;P2;SDS_P1;SDS_P2;PMS_P1;PMS_P2;Temp;Humidity;BMP_temperature;BMP_pressure;BME280_temperature;BME280_humidity;BME280_pressure;Samples;Min_cycle;Max_cycle;Signal;HPM_P1;HPM_P2
2021/01/23 00:00:20;;;;;;;7.30;5.25;;;3.50;99.90;;;;;;485262;245;27523;-69
2021/01/23 00:02:21;;;;;;;5.75;5.12;;;3.60;99.90;;;;;;485345;245;27614;-69
2021/01/23 00:04:22;;;;;;;5.47;4.80;;;3.70;99.90;;;;;;485060;245;27515;-68
2021/01/23 00:06:24;;;;;;;7.80;5.10;;;3.70;99.90;;;;;;484782;245;27588;-71
2021/01/23 00:08:25;;;;;;;5.80;4.47;;;3.70;99.90;;;;;;484657;245;28477;-71
2021/01/23 00:10:26;;;;;;;6.30;4.70;;;3.60;99.90;;;;;;485085;245;28124;-69
2021/01/23 00:12:27;;;;;;;5.40;4.55;;;3.60;99.90;;;;;;485436;245;28093;-69
2021/01/23 00:14:29;;;;;;;5.60;5.10;;;3.70;99.90;;;;;;485423;245;27538;-69
2021/01/23 00:16:30;;;;;;;9.75;4.82;;;3.70;99.90;;;;;;485374;245;27540;-68
2021/01/23 00:18:31;;;;;;;5.18;4.62;;;3.70;99.90;;;;;;485427;245;27610;-71
2021/01/23 00:20:32;;;;;;;5.18;4.68;;;3.70;99.90;;;;;;485353;245;27539;-68
2021/01/23 00:22:34;;;;;;;5.65;4.70;;;3.80;99.90;;;;;;485092;245;27543;-69
2021/01/23 00:24:35;;;;;;;6.97;5.22;;;3.80;99.90;;;;;;485274;245;27572;-69
2021/01/23 00:26:36;;;;;;;6.60;5.05;;;3.80;99.90;;;;;;485196;245;27645;-68
2021/01/23 00:28:37;;;;;;;6.20;5.50;;;3.70;99.90;;;;;;485277;245;27595;-70
2021/01/23 00:30:39;;;;;;;10.30;5.45;;;3.70;99.90;;;;;;485197;245;27934;-69
2021/01/23 00:32:40;;;;;;;7.00;5.35;;;3.70;99.90;;;;;;485235;245;29086;-69
2021/01/23 00:34:43;;;;;;;6.60;5.12;;;3.70;99.90;;;;;;485247;245;27638;-70
2021/01/23 00:36:42;;;;;;;7.25;5.20;;;3.70;99.90;;;;;;485110;243;27543;-69
2021/01/23 00:38:44;;;;;;;7.68;5.40;;;3.70;99.90;;;;;;485253;245;27644;-69
2021/01/23 00:40:45;;;;;;;7.78;5.47;;;3.70;99.90;;;;;;485182;245;27480;-69
2021/01/23 00:42:46;;;;;;;7.97;5.78;;;3.80;99.90;;;;;;485215;245;27607;-69
2021/01/23 00:44:47;;;;;;;6.78;5.68;;;3.80;99.90;;;;;;485207;245;27526;-70
2021/01/23 00:46:49;;;;;;;6.47;5.45;;;3.70;99.90;;;;;;485238;245;27550;-69
2021/01/23 00:48:50;;;;;;;9.73;5.85;;;3.70;99.90;;;;;;485136;245;27543;-68
2021/01/23 00:50:51;;;;;;;7.20;5.85;;;3.70;99.90;;;;;;485207;245;27530;-69
2021/01/23 00:52:52;;;;;;;9.70;6.50;;;3.70;99.90;;;;;;485239;245;28099;-70
2021/01/23 00:54:54;;;;;;;8.40;6.80;;;3.60;99.90;;;;;;485261;245;27999;-69
2021/01/23 00:56:55;;;;;;;7.15;6.03;;;3.60;99.90;;;;;;485264;245;27520;-69
2021/01/23 00:58:56;;;;;;;9.38;6.87;;;3.60;99.90;;;;;;485262;245;27542;-69
2021/01/23 01:00:57;;;;;;;7.70;6.55;;;3.60;99.90;;;;;;485246;245;27534;-69
2021/01/23 01:02:59;;;;;;;8.90;6.80;;;3.60;99.90;;;;;;485280;245;27526;-69
2021/01/23 01:05:00;;;;;;;12.05;6.95;;;3.60;99.90;;;;;;485278;245;27544;-69
2021/01/23 01:07:01;;;;;;;11.35;6.97;;;3.60;99.90;;;;;;485271;245;27631;-69
2021/01/23 01:09:02;;;;;;;9.27;6.85;;;3.60;99.90;;;;;;485245;245;27527;-69
2021/01/23 01:11:04;;;;;;;9.40;7.03;;;3.70;99.90;;;;;;485250;245;27527;-70
2021/01/23 01:13:05;;;;;;;8.00;6.47;;;3.70;99.90;;;;;;485260;245;28102;-69
2021/01/23 01:15:06;;;;;;;8.75;6.90;;;3.70;99.90;;;;;;485331;245;28101;-69
2021/01/23 01:17:07;;;;;;;10.88;6.60;;;3.70;99.90;;;;;;485365;245;28075;-68
2021/01/23 01:19:09;;;;;;;11.60;6.78;;;3.70;99.90;;;;;;485338;245;27587;-69
2021/01/23 01:21:10;;;;;;;9.07;7.05;;;3.70;99.90;;;;;;485203;245;27533;-69
2021/01/23 01:23:11;;;;;;;7.80;6.87;;;3.70;99.90;;;;;;485219;245;27531;-70
2021/01/23 01:25:12;;;;;;;8.50;6.78;;;3.70;99.90;;;;;;485215;245;27543;-69
2021/01/23 01:27:14;;;;;;;8.48;7.15;;;3.60;99.90;;;;;;485279;245;27649;-70
2021/01/23 01:29:15;;;;;;;8.50;6.65;;;3.70;99.90;;;;;;485242;245;27495;-69
2021/01/23 01:31:17;;;;;;;8.80;7.00;;;3.70;99.90;;;;;;485178;245;27520;-69
2021/01/23 01:33:17;;;;;;;9.15;6.87;;;3.70;99.90;;;;;;485145;245;28011;-70
2021/01/23 01:35:19;;;;;;;10.80;7.50;;;3.70;99.90;;;;;;485223;245;28016;-69
2021/01/23 01:37:20;;;;;;;13.55;9.00;;;3.70;99.90;;;;;;485252;243;28038;-73
2021/01/23 01:39:21;;;;;;;9.70;7.50;;;3.70;99.90;;;;;;485278;245;27625;-70
2021/01/23 01:41:22;;;;;;;13.75;8.60;;;3.70;99.90;;;;;;485223;245;27524;-69
2021/01/23 01:43:24;;;;;;;17.40;9.05;;;3.70;99.90;;;;;;485147;245;27554;-69
2021/01/23 01:45:25;;;;;;;10.32;7.70;;;3.70;99.90;;;;;;485238;245;27507;-70
2021/01/23 01:47:26;;;;;;;13.52;7.62;;;3.70;99.90;;;;;;485296;245;27538;-70
2021/01/23 01:49:27;;;;;;;8.45;7.45;;;3.70;99.90;;;;;;485253;245;27487;-68
2021/01/23 01:51:29;;;;;;;11.40;7.95;;;3.70;99.90;;;;;;485254;245;27570;-69
2021/01/23 01:53:30;;;;;;;9.10;7.65;;;3.70;99.90;;;;;;485376;245;28504;-68
2021/01/23 01:55:31;;;;;;;10.95;7.90;;;3.70;99.90;;;;;;485413;245;28124;-69
2021/01/23 01:57:32;;;;;;;9.25;7.75;;;3.70;99.90;;;;;;485404;245;27644;-70
2021/01/23 01:59:34;;;;;;;12.15;8.10;;;3.70;99.90;;;;;;485360;245;27493;-69
2021/01/23 02:01:35;;;;;;;13.75;9.40;;;3.70;99.90;;;;;;485251;245;27512;-69
2021/01/23 02:03:36;;;;;;;12.40;8.98;;;3.70;99.90;;;;;;485296;245;27611;-70
2021/01/23 02:05:38;;;;;;;15.45;9.60;;;3.60;99.90;;;;;;485310;245;27557;-69
2021/01/23 02:07:39;;;;;;;11.07;8.88;;;3.70;99.90;;;;;;485282;245;27511;-70
2021/01/23 02:09:40;;;;;;;16.92;9.60;;;3.70;99.90;;;;;;485259;245;27983;-68
2021/01/23 02:11:41;;;;;;;12.55;9.38;;;3.60;99.90;;;;;;485214;245;28182;-69
2021/01/23 02:13:43;;;;;;;15.57;9.80;;;3.60;99.90;;;;;;485246;245;28872;-70
2021/01/23 02:15:44;;;;;;;15.68;10.75;;;3.50;99.90;;;;;;485293;245;27491;-69
2021/01/23 02:17:45;;;;;;;13.20;9.52;;;3.50;99.90;;;;;;485294;245;27558;-69
2021/01/23 02:19:46;;;;;;;12.65;9.25;;;3.50;99.90;;;;;;485255;245;27520;-69
2021/01/23 02:21:48;;;;;;;17.70;10.85;;;3.50;99.90;;;;;;485215;245;27543;-69
2021/01/23 02:23:49;;;;;;;16.05;10.52;;;3.50;99.90;;;;;;485219;245;27626;-70
2021/01/23 02:25:50;;;;;;;14.35;11.38;;;3.50;99.90;;;;;;485246;245;27945;-68
2021/01/23 02:27:51;;;;;;;14.18;10.43;;;3.50;99.90;;;;;;485224;245;29191;-70
2021/01/23 02:29:53;;;;;;;15.48;10.50;;;3.50;99.90;;;;;;485173;245;27526;-70
2021/01/23 02:31:54;;;;;;;14.32;10.35;;;3.50;99.90;;;;;;485183;245;27543;-69
2021/01/23 02:33:55;;;;;;;14.98;10.90;;;3.50;99.90;;;;;;485206;245;27533;-69
2021/01/23 02:35:56;;;;;;;22.30;11.23;;;3.50;99.90;;;;;;485252;245;27548;-69
2021/01/23 02:37:58;;;;;;;17.67;11.12;;;3.40;99.90;;;;;;485248;245;27619;-70
2021/01/23 02:39:59;;;;;;;16.10;11.00;;;3.40;99.90;;;;;;485260;245;27991;-69
2021/01/23 02:42:00;;;;;;;19.17;11.77;;;3.40;99.90;;;;;;485231;245;27989;-69
2021/01/23 02:44:01;;;;;;;17.25;11.18;;;3.40;99.90;;;;;;485242;245;28063;-69
2021/01/23 02:46:03;;;;;;;21.45;10.75;;;3.40;99.90;;;;;;485305;245;27639;-70
2021/01/23 02:48:04;;;;;;;19.33;11.55;;;3.40;99.90;;;;;;485272;245;27536;-69
2021/01/23 02:50:05;;;;;;;15.15;11.10;;;3.40;99.90;;;;;;485228;245;27555;-69
2021/01/23 02:52:06;;;;;;;16.92;11.35;;;3.40;99.90;;;;;;485270;245;27539;-68
2021/01/23 02:54:08;;;;;;;19.17;11.77;;;3.40;99.90;;;;;;485286;245;28959;-69
2021/01/23 02:56:09;;;;;;;23.67;11.80;;;3.40;99.90;;;;;;485270;245;28119;-69
2021/01/23 02:58:10;;;;;;;19.83;11.15;;;3.30;99.90;;;;;;485278;245;27539;-70
2021/01/23 03:00:11;;;;;;;17.77;11.32;;;3.30;99.90;;;;;;485189;243;27622;-69
2021/01/23 03:02:13;;;;;;;18.05;12.32;;;3.30;99.90;;;;;;485253;245;27523;-69
2021/01/23 03:04:14;;;;;;;18.30;10.68;;;3.30;99.90;;;;;;485274;245;27493;-69
2021/01/23 03:06:15;;;;;;;15.63;11.12;;;3.40;99.90;;;;;;485271;245;27572;-69
2021/01/23 03:08:16;;;;;;;18.95;10.85;;;3.40;99.90;;;;;;485278;245;27567;-70
2021/01/23 03:10:18;;;;;;;15.88;11.02;;;3.40;99.90;;;;;;485188;245;28087;-69
2021/01/23 03:12:19;;;;;;;19.02;10.80;;;3.40;99.90;;;;;;485255;245;29143;-70
2021/01/23 03:14:20;;;;;;;15.68;11.40;;;3.40;99.90;;;;;;485253;245;27607;-69
2021/01/23 03:16:22;;;;;;;15.40;10.40;;;3.40;99.90;;;;;;485269;245;27556;-69
2021/01/23 03:18:23;;;;;;;15.35;10.30;;;3.40;99.90;;;;;;485223;245;27962;-69
2021/01/23 03:20:25;;;;;;;13.70;10.75;;;3.40;99.90;;;;;;485220;243;27521;-68
2021/01/23 03:22:25;;;;;;;15.75;10.02;;;3.40;99.90;;;;;;485217;245;27531;-68
2021/01/23 03:24:27;;;;;;;15.15;9.80;;;3.50;99.90;;;;;;485227;245;27940;-69
2021/01/23 03:26:28;;;;;;;13.98;8.73;;;3.50;99.90;;;;;;485109;245;27992;-68
2021/01/23 03:28:29;;;;;;;16.02;9.95;;;3.40;99.90;;;;;;485332;243;27920;-69
2021/01/23 03:30:30;;;;;;;14.32;8.95;;;3.40;99.90;;;;;;485415;245;27476;-69
2021/01/23 03:32:32;;;;;;;16.35;9.80;;;3.50;99.90;;;;;;485427;245;27529;-69
2021/01/23 03:34:33;;;;;;;14.05;10.25;;;3.50;99.90;;;;;;485391;245;27500;-69
2021/01/23 03:36:34;;;;;;;14.15;8.95;;;3.50;99.90;;;;;;485396;245;27566;-69
2021/01/23 03:38:35;;;;;;;17.50;9.48;;;3.50;99.90;;;;;;485336;243;27535;-70
2021/01/23 03:40:37;;;;;;;14.57;8.43;;;3.50;99.90;;;;;;485286;245;27962;-68
2021/01/23 03:42:38;;;;;;;12.27;8.70;;;3.50;99.90;;;;;;485251;245;28084;-69
2021/01/23 03:44:39;;;;;;;16.20;9.35;;;3.50;99.90;;;;;;485174;245;27941;-69
2021/01/23 03:46:40;;;;;;;15.77;10.05;;;3.50;99.90;;;;;;485139;245;27524;-69
2021/01/23 03:48:42;;;;;;;18.75;10.18;;;3.50;99.90;;;;;;485188;245;27535;-69
2021/01/23 03:50:43;;;;;;;13.20;9.20;;;3.50;99.90;;;;;;485116;245;27538;-69
2021/01/23 03:52:44;;;;;;;11.93;8.80;;;3.50;99.90;;;;;;485175;245;27560;-69
2021/01/23 03:54:45;;;;;;;14.80;9.27;;;3.50;99.90;;;;;;485174;245;27526;-68
2021/01/23 03:56:47;;;;;;;14.13;9.32;;;3.50;99.90;;;;;;485174;245;27590;-69
2021/01/23 03:58:48;;;;;;;16.62;10.68;;;3.50;99.90;;;;;;485197;245;28158;-70
2021/01/23 04:00:49;;;;;;;15.13;9.95;;;3.60;99.90;;;;;;485136;245;27914;-69
2021/01/23 04:02:50;;;;;;;14.45;10.43;;;3.50;99.90;;;;;;485126;245;27593;-69
2021/01/23 04:04:52;;;;;;;12.82;8.40;;;3.50;99.90;;;;;;485246;245;27539;-70
2021/01/23 04:06:53;;;;;;;10.27;7.90;;;3.60;99.90;;;;;;485211;245;27675;-69
2021/01/23 04:08:54;;;;;;;17.77;9.57;;;3.60;99.90;;;;;;485187;245;27624;-68
2021/01/23 04:10:55;;;;;;;13.85;9.02;;;3.60;99.90;;;;;;485131;245;27679;-69
2021/01/23 04:12:57;;;;;;;13.38;8.50;;;3.60;99.90;;;;;;485238;245;27547;-70
2021/01/23 04:14:58;;;;;;;17.67;9.35;;;3.60;99.90;;;;;;485217;245;27572;-69
2021/01/23 04:16:59;;;;;;;15.20;9.05;;;3.50;99.90;;;;;;485197;245;27531;-70
2021/01/23 04:19:00;;;;;;;11.35;8.77;;;3.60;99.90;;;;;;485213;245;27540;-68
2021/01/23 04:21:02;;;;;;;15.55;9.40;;;3.60;99.90;;;;;;485187;245;27598;-70
2021/01/23 04:23:03;;;;;;;11.27;8.15;;;3.60;99.90;;;;;;485261;245;28123;-70
2021/01/23 04:25:04;;;;;;;13.35;9.35;;;3.60;99.90;;;;;;485252;245;28102;-69
2021/01/23 04:27:06;;;;;;;15.98;9.52;;;3.50;99.90;;;;;;485318;245;27522;-69
2021/01/23 04:29:07;;;;;;;15.65;8.57;;;3.50;99.90;;;;;;485379;245;27473;-69
2021/01/23 04:31:08;;;;;;;12.43;9.35;;;3.50;99.90;;;;;;485238;243;27543;-71
2021/01/23 04:33:09;;;;;;;18.15;9.15;;;3.50;99.90;;;;;;485283;245;27948;-68
2021/01/23 04:35:11;;;;;;;20.83;10.13;;;3.50;99.90;;;;;;485252;245;27545;-69
2021/01/23 04:37:12;;;;;;;15.13;9.63;;;3.40;99.90;;;;;;485234;245;27541;-69
2021/01/23 04:39:13;;;;;;;13.30;9.55;;;3.40;99.90;;;;;;485258;245;28016;-68
2021/01/23 04:41:14;;;;;;;16.48;9.23;;;3.50;99.90;;;;;;485219;245;28006;-70
2021/01/23 04:43:16;;;;;;;11.88;8.57;;;3.50;99.90;;;;;;485236;245;28072;-68
2021/01/23 04:45:17;;;;;;;12.23;8.82;;;3.50;99.90;;;;;;485252;245;27519;-69
2021/01/23 04:47:18;;;;;;;13.30;9.13;;;3.40;99.90;;;;;;485273;245;27657;-69
2021/01/23 04:49:19;;;;;;;17.87;8.77;;;3.30;99.90;;;;;;485285;245;27606;-69
2021/01/23 04:51:21;;;;;;;14.43;9.13;;;3.40;99.90;;;;;;485216;245;27663;-69
2021/01/23 04:53:22;;;;;;;12.98;8.90;;;3.40;99.90;;;;;;485284;245;27620;-70
2021/01/23 04:55:23;;;;;;;14.07;8.77;;;3.40;99.90;;;;;;485214;245;27650;-68
2021/01/23 04:57:24;;;;;;;11.80;8.90;;;3.40;99.90;;;;;;484975;245;28034;-70
2021/01/23 04:59:26;;;;;;;14.73;9.15;;;3.40;99.90;;;;;;484784;245;28091;-69
2021/01/23 05:01:27;;;;;;;11.32;8.85;;;3.50;99.90;;;;;;484688;243;29093;-68
2021/01/23 05:03:28;;;;;;;13.30;9.23;;;3.50;99.90;;;;;;485392;245;27525;-69
2021/01/23 05:05:29;;;;;;;14.45;10.10;;;3.50;99.90;;;;;;485399;243;27594;-69
2021/01/23 05:07:31;;;;;;;13.80;10.10;;;3.50;99.90;;;;;;485393;245;27654;-70
2021/01/23 05:09:33;;;;;;;13.73;9.95;;;3.40;99.90;;;;;;485346;245;27535;-69
2021/01/23 05:11:33;;;;;;;14.73;10.00;;;3.40;99.90;;;;;;485244;245;27528;-69
2021/01/23 05:13:34;;;;;;;13.15;9.10;;;3.50;99.90;;;;;;485259;245;27616;-70
2021/01/23 05:15:36;;;;;;;14.90;9.52;;;3.40;99.90;;;;;;485250;245;28002;-69
2021/01/23 05:17:37;;;;;;;14.30;9.85;;;3.40;99.90;;;;;;485262;245;28030;-70
2021/01/23 05:19:38;;;;;;;13.25;9.88;;;3.40;99.90;;;;;;485254;245;27570;-69
2021/01/23 05:21:39;;;;;;;14.38;9.85;;;3.40;99.90;;;;;;485208;245;27547;-69
2021/01/23 05:23:41;;;;;;;16.12;10.35;;;3.30;99.90;;;;;;485235;245;27535;-70
2021/01/23 05:25:42;;;;;;;13.73;10.77;;;3.40;99.90;;;;;;485214;245;27551;-69
2021/01/23 05:27:43;;;;;;;13.77;9.70;;;3.30;99.90;;;;;;485249;243;27529;-70
2021/01/23 05:29:44;;;;;;;16.35;10.07;;;3.40;99.90;;;;;;485270;245;27595;-69
2021/01/23 05:31:46;;;;;;;14.07;10.05;;;3.40;99.90;;;;;;485195;245;27989;-69
2021/01/23 05:33:47;;;;;;;13.68;9.82;;;3.40;99.90;;;;;;485199;245;27638;-68
2021/01/23 05:35:48;;;;;;;21.15;11.68;;;3.40;99.90;;;;;;485190;245;27539;-69
2021/01/23 05:37:49;;;;;;;14.95;10.43;;;3.50;99.90;;;;;;485274;245;27555;-69
2021/01/23 05:39:51;;;;;;;16.20;10.48;;;3.50;99.90;;;;;;485246;245;27910;-70
2021/01/23 05:41:52;;;;;;;12.85;10.18;;;3.40;99.90;;;;;;485176;245;27563;-68
2021/01/23 05:43:54;;;;;;;14.80;10.27;;;3.40;99.90;;;;;;485193;245;27985;-69
2021/01/23 05:45:55;;;;;;;14.13;10.30;;;3.40;99.90;;;;;;485203;245;27525;-69
2021/01/23 05:47:56;;;;;;;17.25;11.35;;;3.40;99.90;;;;;;485275;245;27620;-70
2021/01/23 05:49:57;;;;;;;13.80;10.57;;;3.40;99.90;;;;;;485217;245;27532;-69
2021/01/23 05:51:58;;;;;;;14.95;10.60;;;3.40;99.90;;;;;;485178;245;27556;-69
2021/01/23 05:54:00;;;;;;;16.00;9.65;;;3.40;99.90;;;;;;485184;244;27535;-69
2021/01/23 05:56:01;;;;;;;16.73;10.85;;;3.30;99.90;;;;;;485233;245;27568;-69
2021/01/23 05:58:02;;;;;;;14.00;10.00;;;3.20;99.90;;;;;;485236;245;28091;-69
2021/01/23 06:00:03;;;;;;;16.87;11.07;;;3.20;99.90;;;;;;485137;245;28115;-71
2021/01/23 06:02:05;;;;;;;20.52;12.45;;;3.30;99.90;;;;;;485239;245;27532;-69
2021/01/23 06:04:06;;;;;;;16.15;11.07;;;3.40;99.90;;;;;;485325;245;27491;-69
2021/01/23 06:06:07;;;;;;;17.33;11.35;;;3.40;99.90;;;;;;485365;245;27655;-70
2021/01/23 06:08:09;;;;;;;16.73;11.88;;;3.40;99.90;;;;;;485236;245;27915;-70
2021/01/23 06:10:10;;;;;;;15.82;10.35;;;3.40;99.90;;;;;;485142;245;27615;-69
2021/01/23 06:12:11;;;;;;;20.30;12.50;;;3.50;99.90;;;;;;485215;245;27988;-69
2021/01/23 06:14:12;;;;;;;18.35;9.73;;;3.50;99.90;;;;;;485239;245;27544;-69
2021/01/23 06:16:13;;;;;;;18.17;11.12;;;3.50;99.90;;;;;;485210;245;27542;-70
2021/01/23 06:18:15;;;;;;;16.75;10.80;;;3.50;99.90;;;;;;485250;245;27609;-70
2021/01/23 06:20:16;;;;;;;14.32;10.90;;;3.50;99.90;;;;;;485135;245;27648;-68
2021/01/23 06:22:17;;;;;;;14.93;11.00;;;3.50;99.90;;;;;;485199;245;27522;-72
2021/01/23 06:24:18;;;;;;;14.87;10.82;;;3.50;99.90;;;;;;485269;243;27681;-69
2021/01/23 06:26:20;;;;;;;16.00;11.48;;;3.60;99.90;;;;;;485287;245;27999;-69
2021/01/23 06:28:21;;;;;;;17.30;10.40;;;3.60;99.90;;;;;;485228;245;27662;-70
2021/01/23 06:30:22;;;;;;;15.35;10.15;;;3.50;99.90;;;;;;485157;245;27543;-69
2021/01/23 06:32:23;;;;;;;15.60;9.90;;;3.50;99.90;;;;;;485305;245;27535;-70
2021/01/23 06:34:25;;;;;;;14.82;10.27;;;3.50;99.90;;;;;;485255;245;27498;-69
2021/01/23 06:36:26;;;;;;;11.63;8.90;;;3.50;99.90;;;;;;485164;245;27633;-68
2021/01/23 06:38:27;;;;;;;14.60;9.65;;;3.60;99.90;;;;;;485080;243;29073;-70
2021/01/23 06:40:29;;;;;;;16.20;9.65;;;3.60;99.90;;;;;;485337;245;27968;-69
2021/01/23 06:42:30;;;;;;;13.85;9.85;;;3.70;99.90;;;;;;485428;243;29074;-70
2021/01/23 06:44:31;;;;;;;16.02;10.20;;;3.60;99.90;;;;;;485445;245;27605;-69
2021/01/23 06:46:32;;;;;;;12.48;8.60;;;3.60;99.90;;;;;;485436;245;27611;-69
2021/01/23 06:48:33;;;;;;;11.95;8.70;;;3.70;99.90;;;;;;485423;245;27873;-68
2021/01/23 06:50:35;;;;;;;12.45;9.40;;;3.70;99.90;;;;;;485330;245;27522;-68
2021/01/23 06:52:36;;;;;;;14.07;8.80;;;3.70;99.90;;;;;;485363;245;27531;-69
2021/01/23 06:54:37;;;;;;;12.95;8.98;;;3.70;99.90;;;;;;485301;245;28093;-69
2021/01/23 06:56:39;;;;;;;13.10;9.02;;;3.80;99.90;;;;;;485243;243;28089;-71
2021/01/23 06:58:43;;;;;;;12.25;9.27;;;3.80;99.90;;;;;;485247;245;27628;-70
2021/01/23 07:00:41;;;;;;;11.77;8.82;;;3.80;99.90;;;;;;484989;245;27657;-69
2021/01/23 07:02:42;;;;;;;18.73;9.10;;;3.70;99.90;;;;;;485278;245;27543;-69
2021/01/23 07:04:44;;;;;;;12.90;8.75;;;3.70;99.90;;;;;;485267;243;27501;-69
2021/01/23 07:06:45;;;;;;;14.70;9.32;;;3.80;99.90;;;;;;485188;245;27567;-68
2021/01/23 07:08:46;;;;;;;11.90;9.27;;;3.70;99.90;;;;;;485229;243;27544;-68
2021/01/23 07:10:47;;;;;;;14.95;10.27;;;3.70;99.90;;;;;;485131;245;27529;-68
2021/01/23 07:12:49;;;;;;;13.13;9.05;;;3.70;99.90;;;;;;485160;245;28151;-70
2021/01/23 07:14:50;;;;;;;14.73;9.27;;;3.70;99.90;;;;;;485255;245;28159;-68
2021/01/23 07:16:52;;;;;;;12.68;9.60;;;3.70;99.90;;;;;;485219;245;27542;-68
2021/01/23 07:18:52;;;;;;;18.05;11.00;;;3.70;99.90;;;;;;485596;245;27488;-69
2021/01/23 07:20:54;;;;;;;14.43;9.38;;;3.70;99.90;;;;;;485594;245;27500;-68
2021/01/23 07:22:55;;;;;;;14.45;9.70;;;3.70;99.90;;;;;;485632;245;27515;-70
2021/01/23 07:24:56;;;;;;;16.60;9.70;;;3.70;99.90;;;;;;485276;245;27556;-69
2021/01/23 07:26:57;;;;;;;16.65;9.50;;;3.80;99.90;;;;;;485625;245;27508;-68
2021/01/23 07:28:59;;;;;;;16.80;9.80;;;3.80;99.90;;;;;;485639;245;27511;-68
2021/01/23 07:31:00;;;;;;;14.57;8.73;;;3.80;99.90;;;;;;485602;245;27500;-68
2021/01/23 07:33:01;;;;;;;14.75;9.60;;;3.80;99.90;;;;;;485497;245;27499;-68
2021/01/23 07:35:02;;;;;;;14.50;9.50;;;3.80;99.90;;;;;;485286;245;27539;-69
2021/01/23 07:37:04;;;;;;;15.82;9.77;;;3.80;99.90;;;;;;485332;245;27567;-69
2021/01/23 07:39:05;;;;;;;10.40;8.82;;;3.80;99.90;;;;;;485295;245;27951;-68
2021/01/23 07:41:06;;;;;;;14.55;9.05;;;3.80;99.90;;;;;;485170;245;28088;-69
2021/01/23 07:43:07;;;;;;;13.55;8.80;;;3.80;99.90;;;;;;485251;245;27538;-68
2021/01/23 07:45:09;;;;;;;13.20;9.80;;;3.90;99.90;;;;;;485251;245;27603;-68
2021/01/23 07:47:10;;;;;;;11.70;10.10;;;3.80;99.90;;;;;;485228;245;27533;-69
2021/01/23 07:49:11;;;;;;;16.60;10.45;;;3.90;99.90;;;;;;485267;245;27546;-68
2021/01/23 07:51:12;;;;;;;15.15;10.30;;;3.90;99.90;;;;;;485243;245;27548;-69
2021/01/23 07:53:14;;;;;;;13.43;9.55;;;3.90;99.90;;;;;;485267;245;28810;-68
2021/01/23 07:55:15;;;;;;;15.95;10.32;;;3.90;99.90;;;;;;485252;245;27983;-68
2021/01/23 07:57:16;;;;;;;12.95;9.15;;;3.90;99.90;;;;;;485280;245;27558;-69
2021/01/23 07:59:18;;;;;;;14.32;8.98;;;3.80;99.90;;;;;;485460;245;27496;-69
2021/01/23 08:01:19;;;;;;;10.98;9.07;;;3.80;99.90;;;;;;485256;245;27518;-70
2021/01/23 08:03:20;;;;;;;14.20;9.88;;;3.80;99.90;;;;;;485263;245;27515;-69
2021/01/23 08:05:21;;;;;;;14.05;10.23;;;3.90;99.90;;;;;;485290;245;27525;-68
2021/01/23 08:07:23;;;;;;;11.88;8.95;;;3.90;99.90;;;;;;485435;245;28049;-69
2021/01/23 08:09:24;;;;;;;15.27;10.38;;;3.90;99.90;;;;;;485386;245;27943;-68
2021/01/23 08:11:25;;;;;;;15.65;10.50;;;3.90;99.90;;;;;;485299;245;27642;-68
2021/01/23 08:13:27;;;;;;;15.55;9.65;;;3.90;99.90;;;;;;485331;245;27572;-68
2021/01/23 08:15:28;;;;;;;16.17;10.48;;;3.80;99.90;;;;;;485281;245;27515;-68
2021/01/23 08:17:29;;;;;;;14.38;10.55;;;3.90;99.90;;;;;;485268;245;27551;-70
2021/01/23 08:19:30;;;;;;;13.15;10.07;;;3.90;99.90;;;;;;485257;245;27602;-68
2021/01/23 08:21:31;;;;;;;12.60;9.77;;;3.90;99.90;;;;;;485248;245;27971;-68
2021/01/23 08:23:33;;;;;;;13.15;9.70;;;4.00;99.90;;;;;;485202;245;28738;-68
2021/01/23 08:25:34;;;;;;;15.82;9.93;;;4.00;99.90;;;;;;485253;245;27524;-68
2021/01/23 08:27:35;;;;;;;15.13;9.85;;;4.00;99.90;;;;;;485230;245;27610;-68
2021/01/23 08:29:36;;;;;;;16.70;9.80;;;4.10;99.90;;;;;;485263;245;27500;-68
2021/01/23 08:31:40;;;;;;;12.60;9.05;;;4.10;99.90;;;;;;485226;245;27646;-69
2021/01/23 08:33:39;;;;;;;13.88;9.48;;;4.10;99.90;;;;;;485125;245;27854;-70
2021/01/23 08:35:40;;;;;;;11.35;8.30;;;4.10;99.90;;;;;;485223;243;27540;-70
2021/01/23 08:37:41;;;;;;;10.27;8.60;;;4.00;99.90;;;;;;485227;245;28766;-70
2021/01/23 08:39:43;;;;;;;13.13;9.10;;;4.10;99.90;;;;;;485197;245;27979;-70
2021/01/23 08:41:44;;;;;;;11.70;9.13;;;4.10;99.90;;;;;;485224;243;27634;-70
2021/01/23 08:43:45;;;;;;;11.93;8.05;;;4.10;99.90;;;;;;485240;245;27530;-70
2021/01/23 08:45:46;;;;;;;12.40;9.07;;;4.10;99.90;;;;;;485220;245;27615;-70
2021/01/23 08:47:48;;;;;;;12.60;8.57;;;4.10;99.90;;;;;;485257;245;27550;-70
2021/01/23 08:49:49;;;;;;;10.75;8.30;;;4.10;99.90;;;;;;485314;245;27569;-70
2021/01/23 08:51:51;;;;;;;12.98;8.20;;;4.10;99.90;;;;;;485255;245;28000;-72
2021/01/23 08:53:51;;;;;;;9.63;6.80;;;4.10;99.90;;;;;;485323;245;28029;-71
2021/01/23 08:55:53;;;;;;;10.45;7.45;;;4.00;99.90;;;;;;485272;245;27567;-70
2021/01/23 08:57:54;;;;;;;10.43;7.68;;;4.00;99.90;;;;;;485271;245;27518;-71
2021/01/23 08:59:55;;;;;;;12.85;7.25;;;4.10;99.90;;;;;;485310;245;27533;-71
2021/01/23 09:01:56;;;;;;;11.70;6.68;;;4.10;99.90;;;;;;485335;245;27989;-71
2021/01/23 09:03:58;;;;;;;7.95;5.97;;;4.00;99.90;;;;;;485281;245;27626;-70
2021/01/23 09:05:59;;;;;;;6.97;6.05;;;4.00;99.90;;;;;;485288;245;28103;-70
2021/01/23 09:08:00;;;;;;;9.45;6.20;;;3.90;99.90;;;;;;485379;245;27959;-70
2021/01/23 09:10:02;;;;;;;8.40;6.00;;;3.90;99.90;;;;;;485254;245;28031;-73
2021/01/23 09:12:03;;;;;;;8.05;5.80;;;4.00;99.90;;;;;;485242;245;27566;-71
2021/01/23 09:14:04;;;;;;;8.25;6.15;;;4.00;99.90;;;;;;485219;245;27544;-70
2021/01/23 09:16:05;;;;;;;7.35;6.12;;;4.00;99.90;;;;;;485226;245;27534;-71
2021/01/23 09:18:07;;;;;;;6.03;5.30;;;4.00;99.90;;;;;;485256;245;27612;-70
2021/01/23 09:20:08;;;;;;;11.70;5.85;;;4.10;99.90;;;;;;485201;245;27519;-70
2021/01/23 09:22:10;;;;;;;8.48;4.62;;;4.00;99.90;;;;;;485227;245;27611;-72
2021/01/23 09:24:10;;;;;;;8.88;5.57;;;4.10;99.90;;;;;;485207;245;27601;-71
2021/01/23 09:26:12;;;;;;;11.35;5.78;;;4.20;99.90;;;;;;485259;245;28017;-72
2021/01/23 09:28:13;;;;;;;6.30;5.18;;;4.20;99.90;;;;;;485264;245;28107;-70
2021/01/23 09:30:14;;;;;;;8.07;5.50;;;4.20;99.90;;;;;;485207;243;27510;-71
2021/01/23 09:32:17;;;;;;;8.80;5.45;;;4.30;99.90;;;;;;485265;245;27539;-71
2021/01/23 09:34:17;;;;;;;11.40;5.82;;;4.30;99.90;;;;;;485206;245;27586;-71
2021/01/23 09:36:18;;;;;;;7.47;4.72;;;4.30;99.90;;;;;;485268;245;27588;-71
2021/01/23 09:38:19;;;;;;;7.20;4.50;;;4.30;99.90;;;;;;485256;245;27503;-70
2021/01/23 09:40:20;;;;;;;6.62;5.05;;;4.30;99.90;;;;;;485210;245;27536;-71
2021/01/23 09:42:22;;;;;;;9.50;4.87;;;4.30;99.90;;;;;;485311;245;28861;-72
2021/01/23 09:44:23;;;;;;;8.48;5.05;;;4.20;99.90;;;;;;485429;245;28003;-70
2021/01/23 09:46:24;;;;;;;10.00;5.30;;;4.30;99.90;;;;;;485415;245;28008;-70
2021/01/23 09:48:25;;;;;;;6.60;4.50;;;4.30;99.90;;;;;;485393;245;27489;-70
2021/01/23 09:50:27;;;;;;;8.07;5.30;;;4.30;99.90;;;;;;485365;245;27536;-70
2021/01/23 09:52:28;;;;;;;8.57;5.50;;;4.30;99.90;;;;;;485474;245;27884;-72
2021/01/23 09:54:29;;;;;;;7.72;4.72;;;4.30;99.90;;;;;;485398;245;28021;-71
2021/01/23 09:56:30;;;;;;;7.72;4.78;;;4.40;99.90;;;;;;485316;245;28040;-71
2021/01/23 09:58:32;;;;;;;8.93;5.25;;;4.40;99.90;;;;;;485253;243;27492;-70
2021/01/23 10:00:33;;;;;;;8.27;4.80;;;4.40;99.90;;;;;;485221;245;27638;-71
2021/01/23 10:02:35;;;;;;;5.80;4.60;;;4.40;99.90;;;;;;485252;245;27516;-71
2021/01/23 10:04:35;;;;;;;5.37;4.00;;;4.40;99.90;;;;;;485223;245;27535;-70
2021/01/23 10:06:37;;;;;;;7.07;4.60;;;4.30;99.90;;;;;;485306;245;28006;-72
2021/01/23 10:08:38;;;;;;;13.30;5.07;;;4.40;99.90;;;;;;485264;245;27567;-70
2021/01/23 10:10:39;;;;;;;8.80;5.00;;;4.40;99.90;;;;;;485186;245;28034;-70
2021/01/23 10:12:40;;;;;;;7.80;4.15;;;4.40;99.90;;;;;;485239;245;28087;-71
2021/01/23 10:14:42;;;;;;;5.65;4.12;;;4.40;99.90;;;;;;485280;245;27520;-70
2021/01/23 10:16:43;;;;;;;7.62;4.10;;;4.30;99.90;;;;;;485298;243;27579;-72
2021/01/23 10:18:44;;;;;;;7.12;4.10;;;4.30;99.90;;;;;;485267;245;27547;-73
2021/01/23 10:20:45;;;;;;;5.10;3.85;;;4.30;99.90;;;;;;485219;245;27542;-71
2021/01/23 10:22:47;;;;;;;7.60;3.72;;;4.40;99.90;;;;;;485246;245;27517;-70
2021/01/23 10:24:48;;;;;;;7.22;4.00;;;4.40;99.90;;;;;;485268;245;27656;-70
2021/01/23 10:26:49;;;;;;;5.80;3.60;;;4.50;99.90;;;;;;485290;245;28768;-70
2021/01/23 10:28:51;;;;;;;6.05;4.55;;;4.50;99.90;;;;;;485285;245;28109;-71
2021/01/23 10:30:52;;;;;;;12.35;3.95;;;4.50;99.90;;;;;;485223;245;28033;-71